Pika — WD16893 — position and weather

sailwx.info

Track history (hours):
 
Tides and Currents Weather Stations Pressure Air Temp Water Temp Dewpoint Dewpoint Depression Visibility Wind Speed Wind Dir Waves Ship Positions

Pika

Last reported at 2018-Feb-20 15:03 UTC. Time now 2018-Feb-23 10:48 UTC.
Position N 23°56' W 076°23'.

Length 11 m.

Type: Sailing vessel. MMSI: 367723290.

Date/timePositionNaut miles runAvg speedWind from/ knotsBaromVisibWave heightAir tempDewpointWater temp
2018-Feb-20 15:03N 23°56' W 076°23'1 8.8
2018-Feb-20 14:57N 23°57' W 076°23'4 8.7
2018-Feb-20 14:30N 24°01' W 076°24'4 8.5
2018-Feb-20 14:00N 24°05' W 076°25'3 5.2
2018-Feb-20 13:29N 24°07' W 076°24'3 5.7
2018-Feb-20 13:00N 24°10' W 076°24'1 2.7
2018-Feb-20 12:31N 24°11' W 076°25'2 0.3
2018-Feb-20 04:08N 24°11' W 076°28'0 0.0
2018-Feb-20 03:59N 24°11' W 076°28'0 0.0
2018-Feb-20 03:29N 24°11' W 076°28'0 0.0
2018-Feb-20 02:59N 24°11' W 076°28'0 0.0
2018-Feb-20 02:29N 24°11' W 076°28'0 0.0
2018-Feb-20 01:59N 24°11' W 076°28'0 0.0
2018-Feb-20 01:29N 24°11' W 076°28'0 0.0
2018-Feb-20 00:59N 24°11' W 076°28'0 0.0
2018-Feb-20 00:29N 24°11' W 076°28'0 0.0
2018-Feb-19 21:32N 24°11' W 076°28'0 0.0
2018-Feb-19 21:23N 24°11' W 076°28'0 0.0
2018-Feb-19 20:59N 24°11' W 076°28'0 0.0
2018-Feb-19 20:29N 24°11' W 076°28'0 0.0
2018-Feb-19 19:59N 24°11' W 076°28'0 0.0
2018-Feb-19 19:29N 24°11' W 076°28'0 0.0
2018-Feb-19 18:59N 24°11' W 076°28'0 0.0
2018-Feb-19 18:29N 24°11' W 076°28'0 0.0
2018-Feb-19 17:59N 24°11' W 076°28'0 0.0
2018-Feb-19 17:29N 24°11' W 076°28'1 2.1
2018-Feb-19 17:00N 24°11' W 076°27'0 0.2
2018-Feb-19 16:30N 24°11' W 076°27'0 0.0
2018-Feb-19 16:00N 24°11' W 076°27'0 0.0
2018-Feb-19 15:30N 24°11' W 076°27'0 0.0
2018-Feb-19 14:57N 24°11' W 076°27'  
Track history (hours):
 
Tides and Currents Weather Stations Pressure Air Temp Water Temp Dewpoint Dewpoint Depression Visibility Wind Speed Wind Dir Waves Ship Positions

Pika

Last reported at 2018-Feb-20 15:03 UTC. Time now 2018-Feb-23 10:48 UTC.
Position N 23°56' W 076°23'.

Length 11 m.

Type: Sailing vessel. MMSI: 367723290.

Date/timePositionNaut miles runAvg speedWind from/ knotsBaromVisibWave heightAir tempDewpointWater temp
2018-Feb-20 15:03N 23°56' W 076°23'1 8.8
2018-Feb-20 14:57N 23°57' W 076°23'4 8.7
2018-Feb-20 14:30N 24°01' W 076°24'4 8.5
2018-Feb-20 14:00N 24°05' W 076°25'3 5.2
2018-Feb-20 13:29N 24°07' W 076°24'3 5.7
2018-Feb-20 13:00N 24°10' W 076°24'1 2.7
2018-Feb-20 12:31N 24°11' W 076°25'2 0.3
2018-Feb-20 04:08N 24°11' W 076°28'0 0.0
2018-Feb-20 03:59N 24°11' W 076°28'0 0.0
2018-Feb-20 03:29N 24°11' W 076°28'0 0.0
2018-Feb-20 02:59N 24°11' W 076°28'0 0.0
2018-Feb-20 02:29N 24°11' W 076°28'0 0.0
2018-Feb-20 01:59N 24°11' W 076°28'0 0.0
2018-Feb-20 01:29N 24°11' W 076°28'0 0.0
2018-Feb-20 00:59N 24°11' W 076°28'0 0.0
2018-Feb-20 00:29N 24°11' W 076°28'0 0.0
2018-Feb-19 21:32N 24°11' W 076°28'0 0.0
2018-Feb-19 21:23N 24°11' W 076°28'0 0.0
2018-Feb-19 20:59N 24°11' W 076°28'0 0.0
2018-Feb-19 20:29N 24°11' W 076°28'0 0.0
2018-Feb-19 19:59N 24°11' W 076°28'0 0.0
2018-Feb-19 19:29N 24°11' W 076°28'0 0.0
2018-Feb-19 18:59N 24°11' W 076°28'0 0.0
2018-Feb-19 18:29N 24°11' W 076°28'0 0.0
2018-Feb-19 17:59N 24°11' W 076°28'0 0.0
2018-Feb-19 17:29N 24°11' W 076°28'1 2.1
2018-Feb-19 17:00N 24°11' W 076°27'0 0.2
2018-Feb-19 16:30N 24°11' W 076°27'0 0.0
2018-Feb-19 16:00N 24°11' W 076°27'0 0.0
2018-Feb-19 15:30N 24°11' W 076°27'0 0.0
2018-Feb-19 14:57N 24°11' W 076°27'  

Dump ship's entire track history